sensor_id;sensor_type;location;lat;lon;timestamp;P1;durP1;ratioP1;P2;durP2;ratioP2
54271;SDS011;40184;53.362;5.216;2023-02-14T00:02:09;58.53;;;45.13;;
54271;SDS011;40184;53.362;5.216;2023-02-14T00:04:34;55.53;;;43.35;;
54271;SDS011;40184;53.362;5.216;2023-02-14T00:07:02;61.72;;;46.00;;
54271;SDS011;40184;53.362;5.216;2023-02-14T00:09:29;64.35;;;46.53;;
54271;SDS011;40184;53.362;5.216;2023-02-14T00:11:55;62.47;;;46.70;;
54271;SDS011;40184;53.362;5.216;2023-02-14T00:14:21;63.05;;;46.13;;
54271;SDS011;40184;53.362;5.216;2023-02-14T00:17:04;56.63;;;45.65;;
54271;SDS011;40184;53.362;5.216;2023-02-14T00:19:30;58.50;;;45.92;;
54271;SDS011;40184;53.362;5.216;2023-02-14T00:21:58;63.33;;;47.78;;
54271;SDS011;40184;53.362;5.216;2023-02-14T00:24:24;61.58;;;46.95;;
54271;SDS011;40184;53.362;5.216;2023-02-14T00:26:51;61.17;;;45.67;;
54271;SDS011;40184;53.362;5.216;2023-02-14T00:29:18;66.07;;;48.55;;
54271;SDS011;40184;53.362;5.216;2023-02-14T00:31:46;65.75;;;48.10;;
54271;SDS011;40184;53.362;5.216;2023-02-14T00:34:12;64.15;;;47.92;;
54271;SDS011;40184;53.362;5.216;2023-02-14T00:36:39;63.72;;;46.08;;
54271;SDS011;40184;53.362;5.216;2023-02-14T00:39:06;60.63;;;46.78;;
54271;SDS011;40184;53.362;5.216;2023-02-14T00:41:33;60.72;;;46.42;;
54271;SDS011;40184;53.362;5.216;2023-02-14T00:43:59;60.22;;;46.85;;
54271;SDS011;40184;53.362;5.216;2023-02-14T00:46:25;55.50;;;44.47;;
54271;SDS011;40184;53.362;5.216;2023-02-14T00:48:52;56.88;;;46.67;;
54271;SDS011;40184;53.362;5.216;2023-02-14T00:51:18;60.83;;;45.45;;
54271;SDS011;40184;53.362;5.216;2023-02-14T00:53:44;57.40;;;44.30;;
54271;SDS011;40184;53.362;5.216;2023-02-14T00:56:11;60.03;;;46.60;;
54271;SDS011;40184;53.362;5.216;2023-02-14T00:58:38;58.88;;;46.00;;
54271;SDS011;40184;53.362;5.216;2023-02-14T01:01:04;58.47;;;44.35;;
54271;SDS011;40184;53.362;5.216;2023-02-14T01:03:29;59.78;;;45.75;;
54271;SDS011;40184;53.362;5.216;2023-02-14T01:05:55;58.60;;;46.08;;
54271;SDS011;40184;53.362;5.216;2023-02-14T01:08:21;54.90;;;43.38;;
54271;SDS011;40184;53.362;5.216;2023-02-14T01:10:47;52.58;;;42.47;;
54271;SDS011;40184;53.362;5.216;2023-02-14T01:13:13;61.67;;;46.17;;
54271;SDS011;40184;53.362;5.216;2023-02-14T01:15:43;57.25;;;44.60;;
54271;SDS011;40184;53.362;5.216;2023-02-14T01:18:10;60.28;;;46.42;;
54271;SDS011;40184;53.362;5.216;2023-02-14T01:20:36;54.80;;;42.83;;
54271;SDS011;40184;53.362;5.216;2023-02-14T01:23:02;60.42;;;45.15;;
54271;SDS011;40184;53.362;5.216;2023-02-14T01:25:28;54.45;;;44.67;;
54271;SDS011;40184;53.362;5.216;2023-02-14T01:27:53;58.63;;;44.53;;
54271;SDS011;40184;53.362;5.216;2023-02-14T01:30:19;52.30;;;42.25;;
54271;SDS011;40184;53.362;5.216;2023-02-14T01:32:46;53.17;;;42.38;;
54271;SDS011;40184;53.362;5.216;2023-02-14T01:35:12;50.38;;;41.70;;
54271;SDS011;40184;53.362;5.216;2023-02-14T01:37:37;52.63;;;41.30;;
54271;SDS011;40184;53.362;5.216;2023-02-14T01:40:04;49.90;;;40.95;;
54271;SDS011;40184;53.362;5.216;2023-02-14T01:42:33;52.47;;;41.45;;
54271;SDS011;40184;53.362;5.216;2023-02-14T01:47:32;49.85;;;41.15;;
54271;SDS011;40184;53.362;5.216;2023-02-14T01:50:13;62.28;;;44.42;;
54271;SDS011;40184;53.362;5.216;2023-02-14T01:52:47;55.75;;;41.80;;
54271;SDS011;40184;53.362;5.216;2023-02-14T01:55:20;60.08;;;43.42;;
54271;SDS011;40184;53.362;5.216;2023-02-14T01:57:50;51.83;;;40.05;;
54271;SDS011;40184;53.362;5.216;2023-02-14T02:00:24;55.88;;;41.35;;
54271;SDS011;40184;53.362;5.216;2023-02-14T02:03:09;58.03;;;43.25;;
54271;SDS011;40184;53.362;5.216;2023-02-14T02:05:39;50.58;;;40.95;;
54271;SDS011;40184;53.362;5.216;2023-02-14T02:08:08;48.63;;;40.43;;
54271;SDS011;40184;53.362;5.216;2023-02-14T02:10:35;53.45;;;41.67;;
54271;SDS011;40184;53.362;5.216;2023-02-14T02:13:02;59.80;;;43.55;;
54271;SDS011;40184;53.362;5.216;2023-02-14T02:15:30;53.63;;;42.13;;
54271;SDS011;40184;53.362;5.216;2023-02-14T02:21:23;51.88;;;40.17;;
54271;SDS011;40184;53.362;5.216;2023-02-14T02:27:06;56.25;;;42.97;;
54271;SDS011;40184;53.362;5.216;2023-02-14T02:36:04;54.53;;;39.75;;
54271;SDS011;40184;53.362;5.216;2023-02-14T02:46:30;55.92;;;41.00;;
54271;SDS011;40184;53.362;5.216;2023-02-14T02:49:23;51.03;;;39.80;;
54271;SDS011;40184;53.362;5.216;2023-02-14T02:55:02;52.55;;;40.67;;
54271;SDS011;40184;53.362;5.216;2023-02-14T02:57:33;57.55;;;42.35;;
54271;SDS011;40184;53.362;5.216;2023-02-14T03:00:04;51.13;;;39.05;;
54271;SDS011;40184;53.362;5.216;2023-02-14T03:02:37;52.17;;;40.45;;
54271;SDS011;40184;53.362;5.216;2023-02-14T03:05:25;50.53;;;40.70;;
54271;SDS011;40184;53.362;5.216;2023-02-14T03:07:52;53.80;;;41.67;;
54271;SDS011;40184;53.362;5.216;2023-02-14T03:18:07;65.90;;;45.30;;
54271;SDS011;40184;53.362;5.216;2023-02-14T03:20:48;53.13;;;41.70;;
54271;SDS011;40184;53.362;5.216;2023-02-14T03:32:02;53.50;;;39.90;;
54271;SDS011;40184;53.362;5.216;2023-02-14T03:34:46;50.20;;;38.30;;
54271;SDS011;40184;53.362;5.216;2023-02-14T03:37:21;52.10;;;40.13;;
54271;SDS011;40184;53.362;5.216;2023-02-14T03:45:46;57.80;;;42.15;;
54271;SDS011;40184;53.362;5.216;2023-02-14T03:48:16;56.28;;;41.00;;
54271;SDS011;40184;53.362;5.216;2023-02-14T03:50:45;54.63;;;40.17;;
54271;SDS011;40184;53.362;5.216;2023-02-14T03:53:12;61.00;;;42.28;;
54271;SDS011;40184;53.362;5.216;2023-02-14T03:58:30;53.92;;;38.92;;
54271;SDS011;40184;53.362;5.216;2023-02-14T04:01:04;50.53;;;39.30;;
54271;SDS011;40184;53.362;5.216;2023-02-14T04:03:35;54.05;;;40.63;;
54271;SDS011;40184;53.362;5.216;2023-02-14T04:06:04;54.75;;;39.63;;
54271;SDS011;40184;53.362;5.216;2023-02-14T04:08:30;59.47;;;42.75;;
54271;SDS011;40184;53.362;5.216;2023-02-14T04:10:57;53.92;;;40.05;;
54271;SDS011;40184;53.362;5.216;2023-02-14T04:13:25;60.92;;;42.53;;
54271;SDS011;40184;53.362;5.216;2023-02-14T04:15:51;59.28;;;41.38;;
54271;SDS011;40184;53.362;5.216;2023-02-14T04:18:16;57.72;;;41.65;;
54271;SDS011;40184;53.362;5.216;2023-02-14T04:21:01;54.35;;;40.88;;
54271;SDS011;40184;53.362;5.216;2023-02-14T04:23:26;57.22;;;40.95;;
54271;SDS011;40184;53.362;5.216;2023-02-14T04:25:52;54.33;;;40.15;;
54271;SDS011;40184;53.362;5.216;2023-02-14T04:28:18;61.53;;;40.85;;
54271;SDS011;40184;53.362;5.216;2023-02-14T04:30:44;54.50;;;40.50;;
54271;SDS011;40184;53.362;5.216;2023-02-14T04:33:09;56.05;;;41.80;;
54271;SDS011;40184;53.362;5.216;2023-02-14T04:35:35;56.60;;;41.15;;
54271;SDS011;40184;53.362;5.216;2023-02-14T04:38:02;47.72;;;36.88;;
54271;SDS011;40184;53.362;5.216;2023-02-14T04:40:28;56.88;;;41.30;;
54271;SDS011;40184;53.362;5.216;2023-02-14T04:42:54;55.53;;;38.80;;
54271;SDS011;40184;53.362;5.216;2023-02-14T04:45:20;51.05;;;38.33;;
54271;SDS011;40184;53.362;5.216;2023-02-14T04:47:46;58.78;;;42.30;;
54271;SDS011;40184;53.362;5.216;2023-02-14T04:50:12;54.05;;;39.15;;
54271;SDS011;40184;53.362;5.216;2023-02-14T04:52:38;49.78;;;39.00;;
54271;SDS011;40184;53.362;5.216;2023-02-14T04:55:05;57.53;;;40.00;;
54271;SDS011;40184;53.362;5.216;2023-02-14T04:57:32;56.22;;;42.13;;
54271;SDS011;40184;53.362;5.216;2023-02-14T04:59:58;54.25;;;39.83;;
54271;SDS011;40184;53.362;5.216;2023-02-14T05:02:24;65.70;;;42.92;;
54271;SDS011;40184;53.362;5.216;2023-02-14T05:04:49;52.28;;;39.15;;
54271;SDS011;40184;53.362;5.216;2023-02-14T05:07:15;59.33;;;40.33;;
54271;SDS011;40184;53.362;5.216;2023-02-14T05:09:41;50.38;;;39.63;;
54271;SDS011;40184;53.362;5.216;2023-02-14T05:12:06;54.88;;;41.20;;
54271;SDS011;40184;53.362;5.216;2023-02-14T05:14:32;49.40;;;37.80;;
54271;SDS011;40184;53.362;5.216;2023-02-14T05:16:58;56.60;;;41.97;;
54271;SDS011;40184;53.362;5.216;2023-02-14T05:19:23;57.15;;;39.33;;
54271;SDS011;40184;53.362;5.216;2023-02-14T05:21:49;54.55;;;39.60;;
54271;SDS011;40184;53.362;5.216;2023-02-14T05:24:15;51.25;;;39.03;;
54271;SDS011;40184;53.362;5.216;2023-02-14T05:26:41;52.20;;;40.17;;
54271;SDS011;40184;53.362;5.216;2023-02-14T05:29:06;51.58;;;39.25;;
54271;SDS011;40184;53.362;5.216;2023-02-14T05:31:32;53.97;;;39.42;;
54271;SDS011;40184;53.362;5.216;2023-02-14T05:33:58;54.80;;;41.10;;
54271;SDS011;40184;53.362;5.216;2023-02-14T05:36:24;55.88;;;40.13;;
54271;SDS011;40184;53.362;5.216;2023-02-14T05:38:50;52.20;;;39.38;;
54271;SDS011;40184;53.362;5.216;2023-02-14T05:41:15;56.47;;;39.63;;
54271;SDS011;40184;53.362;5.216;2023-02-14T05:43:41;55.80;;;40.28;;
54271;SDS011;40184;53.362;5.216;2023-02-14T05:46:07;49.17;;;38.00;;
54271;SDS011;40184;53.362;5.216;2023-02-14T05:48:33;52.83;;;39.30;;
54271;SDS011;40184;53.362;5.216;2023-02-14T05:51:03;51.83;;;37.70;;
54271;SDS011;40184;53.362;5.216;2023-02-14T05:53:29;56.75;;;41.17;;
54271;SDS011;40184;53.362;5.216;2023-02-14T05:55:55;51.85;;;37.88;;
54271;SDS011;40184;53.362;5.216;2023-02-14T05:58:20;54.70;;;40.78;;
54271;SDS011;40184;53.362;5.216;2023-02-14T06:00:46;54.83;;;38.40;;
54271;SDS011;40184;53.362;5.216;2023-02-14T06:03:12;49.88;;;37.13;;
54271;SDS011;40184;53.362;5.216;2023-02-14T06:05:37;48.92;;;36.67;;
54271;SDS011;40184;53.362;5.216;2023-02-14T06:08:03;52.10;;;37.30;;
54271;SDS011;40184;53.362;5.216;2023-02-14T06:10:29;50.67;;;37.05;;
54271;SDS011;40184;53.362;5.216;2023-02-14T06:12:55;53.05;;;38.92;;
54271;SDS011;40184;53.362;5.216;2023-02-14T06:15:21;51.20;;;38.22;;
54271;SDS011;40184;53.362;5.216;2023-02-14T06:17:50;49.90;;;36.50;;
54271;SDS011;40184;53.362;5.216;2023-02-14T06:20:17;50.20;;;36.10;;
54271;SDS011;40184;53.362;5.216;2023-02-14T06:22:42;47.58;;;33.85;;
54271;SDS011;40184;53.362;5.216;2023-02-14T06:25:08;49.72;;;36.22;;
54271;SDS011;40184;53.362;5.216;2023-02-14T06:27:34;45.13;;;34.75;;
54271;SDS011;40184;53.362;5.216;2023-02-14T06:29:59;45.45;;;35.42;;
54271;SDS011;40184;53.362;5.216;2023-02-14T06:32:25;46.90;;;35.20;;
54271;SDS011;40184;53.362;5.216;2023-02-14T06:34:51;48.97;;;34.90;;
54271;SDS011;40184;53.362;5.216;2023-02-14T06:37:17;47.95;;;36.08;;
54271;SDS011;40184;53.362;5.216;2023-02-14T06:39:44;48.45;;;36.22;;
54271;SDS011;40184;53.362;5.216;2023-02-14T06:42:10;50.30;;;35.08;;
54271;SDS011;40184;53.362;5.216;2023-02-14T06:44:35;46.78;;;36.83;;
54271;SDS011;40184;53.362;5.216;2023-02-14T06:47:01;49.50;;;34.88;;
54271;SDS011;40184;53.362;5.216;2023-02-14T06:49:26;42.70;;;32.90;;
54271;SDS011;40184;53.362;5.216;2023-02-14T06:51:52;49.03;;;35.25;;
54271;SDS011;40184;53.362;5.216;2023-02-14T06:54:18;52.92;;;36.35;;
54271;SDS011;40184;53.362;5.216;2023-02-14T06:56:43;45.63;;;34.13;;
54271;SDS011;40184;53.362;5.216;2023-02-14T06:59:09;46.97;;;34.17;;
54271;SDS011;40184;53.362;5.216;2023-02-14T07:01:35;53.83;;;38.10;;
54271;SDS011;40184;53.362;5.216;2023-02-14T07:04:00;48.35;;;34.95;;
54271;SDS011;40184;53.362;5.216;2023-02-14T07:06:26;45.78;;;35.15;;
54271;SDS011;40184;53.362;5.216;2023-02-14T07:08:52;48.33;;;34.70;;
54271;SDS011;40184;53.362;5.216;2023-02-14T07:11:17;55.20;;;35.85;;
54271;SDS011;40184;53.362;5.216;2023-02-14T07:13:44;50.70;;;36.17;;
54271;SDS011;40184;53.362;5.216;2023-02-14T07:16:10;47.25;;;34.38;;
54271;SDS011;40184;53.362;5.216;2023-02-14T07:18:35;48.75;;;34.42;;
54271;SDS011;40184;53.362;5.216;2023-02-14T07:21:01;45.63;;;34.63;;
54271;SDS011;40184;53.362;5.216;2023-02-14T07:23:27;48.78;;;34.67;;
54271;SDS011;40184;53.362;5.216;2023-02-14T07:25:56;59.25;;;38.42;;
54271;SDS011;40184;53.362;5.216;2023-02-14T07:28:21;48.03;;;34.38;;
54271;SDS011;40184;53.362;5.216;2023-02-14T07:30:47;45.85;;;34.88;;
54271;SDS011;40184;53.362;5.216;2023-02-14T07:33:13;46.10;;;34.85;;
54271;SDS011;40184;53.362;5.216;2023-02-14T07:35:38;39.83;;;31.30;;
54271;SDS011;40184;53.362;5.216;2023-02-14T07:38:04;45.33;;;34.10;;
54271;SDS011;40184;53.362;5.216;2023-02-14T07:40:30;45.28;;;32.85;;
54271;SDS011;40184;53.362;5.216;2023-02-14T07:42:56;46.00;;;32.95;;
54271;SDS011;40184;53.362;5.216;2023-02-14T07:45:23;48.13;;;33.90;;
54271;SDS011;40184;53.362;5.216;2023-02-14T07:47:50;58.25;;;40.10;;
54271;SDS011;40184;53.362;5.216;2023-02-14T07:50:18;55.78;;;37.22;;
54271;SDS011;40184;53.362;5.216;2023-02-14T07:52:45;51.47;;;37.35;;
54271;SDS011;40184;53.362;5.216;2023-02-14T07:55:11;51.80;;;38.00;;
54271;SDS011;40184;53.362;5.216;2023-02-14T07:57:37;47.67;;;37.15;;
54271;SDS011;40184;53.362;5.216;2023-02-14T08:00:04;47.28;;;36.33;;
54271;SDS011;40184;53.362;5.216;2023-02-14T08:02:30;41.60;;;34.58;;
54271;SDS011;40184;53.362;5.216;2023-02-14T08:04:56;45.05;;;34.80;;
54271;SDS011;40184;53.362;5.216;2023-02-14T08:07:22;45.78;;;34.83;;
54271;SDS011;40184;53.362;5.216;2023-02-14T08:09:47;47.45;;;34.35;;
54271;SDS011;40184;53.362;5.216;2023-02-14T08:12:13;42.55;;;33.38;;
54271;SDS011;40184;53.362;5.216;2023-02-14T08:14:57;41.05;;;32.78;;
54271;SDS011;40184;53.362;5.216;2023-02-14T08:17:43;38.35;;;30.90;;
54271;SDS011;40184;53.362;5.216;2023-02-14T08:20:08;48.28;;;33.88;;
54271;SDS011;40184;53.362;5.216;2023-02-14T08:22:34;39.70;;;30.27;;
54271;SDS011;40184;53.362;5.216;2023-02-14T08:25:00;37.92;;;30.10;;
54271;SDS011;40184;53.362;5.216;2023-02-14T08:27:26;40.22;;;31.42;;
54271;SDS011;40184;53.362;5.216;2023-02-14T08:29:51;36.15;;;29.50;;
54271;SDS011;40184;53.362;5.216;2023-02-14T08:32:17;42.90;;;32.78;;
54271;SDS011;40184;53.362;5.216;2023-02-14T08:34:45;41.63;;;30.33;;
54271;SDS011;40184;53.362;5.216;2023-02-14T08:37:11;33.90;;;28.58;;
54271;SDS011;40184;53.362;5.216;2023-02-14T08:39:37;36.70;;;29.50;;
54271;SDS011;40184;53.362;5.216;2023-02-14T08:42:03;32.42;;;26.48;;
54271;SDS011;40184;53.362;5.216;2023-02-14T08:44:29;34.63;;;27.50;;
54271;SDS011;40184;53.362;5.216;2023-02-14T08:46:55;37.72;;;27.92;;
54271;SDS011;40184;53.362;5.216;2023-02-14T08:49:21;31.70;;;26.70;;
54271;SDS011;40184;53.362;5.216;2023-02-14T08:51:46;32.58;;;28.08;;
54271;SDS011;40184;53.362;5.216;2023-02-14T08:54:12;34.33;;;27.70;;
54271;SDS011;40184;53.362;5.216;2023-02-14T08:56:38;34.80;;;27.52;;
54271;SDS011;40184;53.362;5.216;2023-02-14T08:59:04;35.67;;;31.17;;
54271;SDS011;40184;53.362;5.216;2023-02-14T09:01:30;34.03;;;29.10;;
54271;SDS011;40184;53.362;5.216;2023-02-14T09:03:56;31.08;;;27.05;;
54271;SDS011;40184;53.362;5.216;2023-02-14T09:06:22;30.77;;;26.50;;
54271;SDS011;40184;53.362;5.216;2023-02-14T09:08:48;32.05;;;26.55;;
54271;SDS011;40184;53.362;5.216;2023-02-14T09:11:15;32.05;;;25.50;;
54271;SDS011;40184;53.362;5.216;2023-02-14T09:13:43;32.58;;;26.92;;
54271;SDS011;40184;53.362;5.216;2023-02-14T09:16:09;29.90;;;26.63;;
54271;SDS011;40184;53.362;5.216;2023-02-14T09:18:36;29.30;;;25.58;;
54271;SDS011;40184;53.362;5.216;2023-02-14T09:21:05;30.45;;;25.55;;
54271;SDS011;40184;53.362;5.216;2023-02-14T09:23:33;29.58;;;26.33;;
54271;SDS011;40184;53.362;5.216;2023-02-14T09:26:02;36.85;;;27.33;;
54271;SDS011;40184;53.362;5.216;2023-02-14T09:28:30;29.33;;;25.45;;
54271;SDS011;40184;53.362;5.216;2023-02-14T09:30:56;30.65;;;26.05;;
54271;SDS011;40184;53.362;5.216;2023-02-14T09:33:22;28.67;;;25.58;;
54271;SDS011;40184;53.362;5.216;2023-02-14T09:35:51;29.30;;;25.30;;
54271;SDS011;40184;53.362;5.216;2023-02-14T09:38:35;29.55;;;24.73;;
54271;SDS011;40184;53.362;5.216;2023-02-14T09:41:04;28.00;;;24.45;;
54271;SDS011;40184;53.362;5.216;2023-02-14T09:43:36;30.58;;;24.60;;
54271;SDS011;40184;53.362;5.216;2023-02-14T09:46:10;28.10;;;23.50;;
54271;SDS011;40184;53.362;5.216;2023-02-14T09:48:41;28.50;;;24.25;;
54271;SDS011;40184;53.362;5.216;2023-02-14T09:51:15;35.47;;;24.42;;
54271;SDS011;40184;53.362;5.216;2023-02-14T10:01:35;30.70;;;25.88;;
54271;SDS011;40184;53.362;5.216;2023-02-14T10:07:15;25.73;;;22.92;;
54271;SDS011;40184;53.362;5.216;2023-02-14T10:10:04;27.00;;;23.25;;
54271;SDS011;40184;53.362;5.216;2023-02-14T10:12:50;26.45;;;23.60;;
54271;SDS011;40184;53.362;5.216;2023-02-14T10:15:44;27.23;;;24.30;;
54271;SDS011;40184;53.362;5.216;2023-02-14T10:21:08;25.30;;;22.65;;
54271;SDS011;40184;53.362;5.216;2023-02-14T10:23:47;27.20;;;24.40;;
54271;SDS011;40184;53.362;5.216;2023-02-14T10:28:52;28.45;;;24.23;;
54271;SDS011;40184;53.362;5.216;2023-02-14T10:31:22;27.65;;;24.23;;
54271;SDS011;40184;53.362;5.216;2023-02-14T10:34:12;25.52;;;22.77;;
54271;SDS011;40184;53.362;5.216;2023-02-14T10:40:17;26.88;;;23.15;;
54271;SDS011;40184;53.362;5.216;2023-02-14T10:42:49;32.50;;;29.00;;
54271;SDS011;40184;53.362;5.216;2023-02-14T10:48:16;28.27;;;24.45;;
54271;SDS011;40184;53.362;5.216;2023-02-14T10:50:58;27.23;;;24.33;;
54271;SDS011;40184;53.362;5.216;2023-02-14T10:56:26;24.63;;;21.85;;
54271;SDS011;40184;53.362;5.216;2023-02-14T10:59:23;25.35;;;22.60;;
54271;SDS011;40184;53.362;5.216;2023-02-14T11:01:57;24.73;;;22.02;;
54271;SDS011;40184;53.362;5.216;2023-02-14T11:04:25;25.90;;;22.27;;
54271;SDS011;40184;53.362;5.216;2023-02-14T11:06:51;24.13;;;21.30;;
54271;SDS011;40184;53.362;5.216;2023-02-14T11:09:17;25.65;;;22.90;;
54271;SDS011;40184;53.362;5.216;2023-02-14T11:11:51;27.27;;;22.40;;
54271;SDS011;40184;53.362;5.216;2023-02-14T11:16:45;28.92;;;21.42;;
54271;SDS011;40184;53.362;5.216;2023-02-14T11:19:25;23.02;;;20.63;;
54271;SDS011;40184;53.362;5.216;2023-02-14T11:21:58;23.13;;;20.65;;
54271;SDS011;40184;53.362;5.216;2023-02-14T11:26:50;20.38;;;18.35;;
54271;SDS011;40184;53.362;5.216;2023-02-14T11:29:41;23.83;;;21.48;;
54271;SDS011;40184;53.362;5.216;2023-02-14T11:32:08;27.45;;;21.40;;
54271;SDS011;40184;53.362;5.216;2023-02-14T11:34:50;24.20;;;19.27;;
54271;SDS011;40184;53.362;5.216;2023-02-14T11:39:47;23.63;;;19.50;;
54271;SDS011;40184;53.362;5.216;2023-02-14T11:42:15;21.77;;;19.45;;
54271;SDS011;40184;53.362;5.216;2023-02-14T11:45:06;27.57;;;22.33;;
54271;SDS011;40184;53.362;5.216;2023-02-14T11:50:42;22.27;;;19.88;;
54271;SDS011;40184;53.362;5.216;2023-02-14T11:53:19;22.27;;;18.70;;
54271;SDS011;40184;53.362;5.216;2023-02-14T11:55:51;21.50;;;19.27;;
54271;SDS011;40184;53.362;5.216;2023-02-14T11:58:33;22.30;;;19.92;;
54271;SDS011;40184;53.362;5.216;2023-02-14T12:01:05;63.05;;;56.33;;
54271;SDS011;40184;53.362;5.216;2023-02-14T12:03:38;22.98;;;18.85;;
54271;SDS011;40184;53.362;5.216;2023-02-14T12:06:10;22.70;;;19.45;;
54271;SDS011;40184;53.362;5.216;2023-02-14T12:08:37;20.77;;;18.60;;
54271;SDS011;40184;53.362;5.216;2023-02-14T12:13:52;22.17;;;19.38;;
54271;SDS011;40184;53.362;5.216;2023-02-14T12:16:23;21.83;;;19.02;;
54271;SDS011;40184;53.362;5.216;2023-02-14T12:18:57;23.17;;;19.50;;
54271;SDS011;40184;53.362;5.216;2023-02-14T12:29:40;43.95;;;36.67;;
54271;SDS011;40184;53.362;5.216;2023-02-14T12:32:22;27.98;;;24.98;;
54271;SDS011;40184;53.362;5.216;2023-02-14T12:34:51;27.25;;;24.10;;
54271;SDS011;40184;53.362;5.216;2023-02-14T12:37:40;30.40;;;24.23;;
54271;SDS011;40184;53.362;5.216;2023-02-14T12:43:29;28.85;;;22.52;;
54271;SDS011;40184;53.362;5.216;2023-02-14T12:49:13;26.75;;;23.38;;
54271;SDS011;40184;53.362;5.216;2023-02-14T12:51:24;31.20;;;25.25;;
54271;SDS011;40184;53.362;5.216;2023-02-14T12:56:41;29.90;;;24.77;;
54271;SDS011;40184;53.362;5.216;2023-02-14T12:59:27;33.35;;;29.52;;
54271;SDS011;40184;53.362;5.216;2023-02-14T13:10:13;32.58;;;26.67;;
54271;SDS011;40184;53.362;5.216;2023-02-14T13:21:21;41.50;;;35.63;;
54271;SDS011;40184;53.362;5.216;2023-02-14T13:24:00;33.50;;;28.77;;
54271;SDS011;40184;53.362;5.216;2023-02-14T13:26:45;39.15;;;29.67;;
54271;SDS011;40184;53.362;5.216;2023-02-14T13:29:19;39.60;;;31.00;;
54271;SDS011;40184;53.362;5.216;2023-02-14T13:31:48;39.92;;;32.35;;
54271;SDS011;40184;53.362;5.216;2023-02-14T13:36:47;38.40;;;31.88;;
54271;SDS011;40184;53.362;5.216;2023-02-14T13:39:17;39.47;;;32.40;;
54271;SDS011;40184;53.362;5.216;2023-02-14T13:42:08;39.72;;;29.98;;
54271;SDS011;40184;53.362;5.216;2023-02-14T13:47:31;42.65;;;32.80;;
54271;SDS011;40184;53.362;5.216;2023-02-14T13:49:57;42.58;;;31.08;;
54271;SDS011;40184;53.362;5.216;2023-02-14T13:52:38;40.05;;;33.42;;
54271;SDS011;40184;53.362;5.216;2023-02-14T13:55:06;43.05;;;34.03;;
54271;SDS011;40184;53.362;5.216;2023-02-14T13:57:44;46.63;;;35.20;;
54271;SDS011;40184;53.362;5.216;2023-02-14T14:02:46;43.40;;;34.30;;
54271;SDS011;40184;53.362;5.216;2023-02-14T14:06:03;41.47;;;35.40;;
54271;SDS011;40184;53.362;5.216;2023-02-14T14:10:55;46.97;;;38.85;;
54271;SDS011;40184;53.362;5.216;2023-02-14T14:13:58;45.78;;;34.90;;
54271;SDS011;40184;53.362;5.216;2023-02-14T14:18:59;50.22;;;35.75;;
54271;SDS011;40184;53.362;5.216;2023-02-14T14:21:26;50.50;;;34.33;;
54271;SDS011;40184;53.362;5.216;2023-02-14T14:26:45;45.10;;;34.78;;
54271;SDS011;40184;53.362;5.216;2023-02-14T14:29:16;43.47;;;34.35;;
54271;SDS011;40184;53.362;5.216;2023-02-14T14:31:43;43.53;;;34.28;;
54271;SDS011;40184;53.362;5.216;2023-02-14T14:34:14;44.58;;;35.78;;
54271;SDS011;40184;53.362;5.216;2023-02-14T14:36:43;47.58;;;35.22;;
54271;SDS011;40184;53.362;5.216;2023-02-14T14:39:09;41.95;;;33.80;;
54271;SDS011;40184;53.362;5.216;2023-02-14T14:41:35;39.33;;;33.92;;
54271;SDS011;40184;53.362;5.216;2023-02-14T14:44:03;47.90;;;35.40;;
54271;SDS011;40184;53.362;5.216;2023-02-14T14:46:29;50.42;;;37.85;;
54271;SDS011;40184;53.362;5.216;2023-02-14T14:48:55;47.22;;;34.60;;
54271;SDS011;40184;53.362;5.216;2023-02-14T14:51:28;49.25;;;35.90;;
54271;SDS011;40184;53.362;5.216;2023-02-14T14:53:56;47.03;;;35.50;;
54271;SDS011;40184;53.362;5.216;2023-02-14T14:56:24;43.28;;;35.35;;
54271;SDS011;40184;53.362;5.216;2023-02-14T14:58:52;48.25;;;33.38;;
54271;SDS011;40184;53.362;5.216;2023-02-14T15:01:37;43.30;;;33.10;;
54271;SDS011;40184;53.362;5.216;2023-02-14T15:04:13;43.45;;;33.90;;
54271;SDS011;40184;53.362;5.216;2023-02-14T15:06:53;44.17;;;33.78;;
54271;SDS011;40184;53.362;5.216;2023-02-14T15:09:39;42.08;;;34.15;;
54271;SDS011;40184;53.362;5.216;2023-02-14T15:12:05;43.40;;;34.22;;
54271;SDS011;40184;53.362;5.216;2023-02-14T15:14:51;42.13;;;33.80;;
54271;SDS011;40184;53.362;5.216;2023-02-14T15:17:24;44.72;;;35.58;;
54271;SDS011;40184;53.362;5.216;2023-02-14T15:19:57;47.67;;;36.03;;
54271;SDS011;40184;53.362;5.216;2023-02-14T15:22:32;47.05;;;35.83;;
54271;SDS011;40184;53.362;5.216;2023-02-14T15:25:12;47.15;;;36.65;;
54271;SDS011;40184;53.362;5.216;2023-02-14T15:27:46;42.55;;;34.42;;
54271;SDS011;40184;53.362;5.216;2023-02-14T15:32:44;48.55;;;35.63;;
54271;SDS011;40184;53.362;5.216;2023-02-14T15:35:12;47.20;;;36.78;;
54271;SDS011;40184;53.362;5.216;2023-02-14T15:37:41;44.47;;;36.03;;
54271;SDS011;40184;53.362;5.216;2023-02-14T15:40:15;43.70;;;35.90;;
54271;SDS011;40184;53.362;5.216;2023-02-14T15:42:42;44.38;;;36.30;;
54271;SDS011;40184;53.362;5.216;2023-02-14T15:45:16;49.15;;;38.15;;
54271;SDS011;40184;53.362;5.216;2023-02-14T15:47:47;64.75;;;47.78;;
54271;SDS011;40184;53.362;5.216;2023-02-14T15:50:17;51.13;;;39.65;;
54271;SDS011;40184;53.362;5.216;2023-02-14T15:52:49;128.32;;;83.45;;
54271;SDS011;40184;53.362;5.216;2023-02-14T15:55:22;81.70;;;54.58;;
54271;SDS011;40184;53.362;5.216;2023-02-14T15:57:54;50.55;;;38.47;;
54271;SDS011;40184;53.362;5.216;2023-02-14T16:00:23;64.15;;;44.15;;
54271;SDS011;40184;53.362;5.216;2023-02-14T16:02:53;56.50;;;46.40;;
54271;SDS011;40184;53.362;5.216;2023-02-14T16:05:24;56.92;;;41.03;;
54271;SDS011;40184;53.362;5.216;2023-02-14T16:08:21;77.72;;;59.78;;
54271;SDS011;40184;53.362;5.216;2023-02-14T16:11:14;51.17;;;40.13;;
54271;SDS011;40184;53.362;5.216;2023-02-14T16:13:55;55.75;;;43.80;;
54271;SDS011;40184;53.362;5.216;2023-02-14T16:16:21;48.90;;;40.80;;
54271;SDS011;40184;53.362;5.216;2023-02-14T16:18:50;52.38;;;40.33;;
54271;SDS011;40184;53.362;5.216;2023-02-14T16:21:18;52.28;;;41.50;;
54271;SDS011;40184;53.362;5.216;2023-02-14T16:26:39;45.95;;;36.90;;
54271;SDS011;40184;53.362;5.216;2023-02-14T16:29:07;49.45;;;39.60;;
54271;SDS011;40184;53.362;5.216;2023-02-14T16:31:35;47.35;;;38.92;;
54271;SDS011;40184;53.362;5.216;2023-02-14T16:34:07;48.05;;;39.08;;
54271;SDS011;40184;53.362;5.216;2023-02-14T16:36:36;50.25;;;40.33;;
54271;SDS011;40184;53.362;5.216;2023-02-14T16:39:02;43.85;;;36.17;;
54271;SDS011;40184;53.362;5.216;2023-02-14T16:41:29;49.55;;;40.35;;
54271;SDS011;40184;53.362;5.216;2023-02-14T16:43:57;56.58;;;40.10;;
54271;SDS011;40184;53.362;5.216;2023-02-14T16:46:24;52.53;;;40.92;;
54271;SDS011;40184;53.362;5.216;2023-02-14T16:48:54;51.85;;;39.45;;
54271;SDS011;40184;53.362;5.216;2023-02-14T16:51:21;53.75;;;42.17;;
54271;SDS011;40184;53.362;5.216;2023-02-14T16:53:50;51.42;;;39.13;;
54271;SDS011;40184;53.362;5.216;2023-02-14T16:56:17;53.42;;;40.95;;
54271;SDS011;40184;53.362;5.216;2023-02-14T16:58:50;53.03;;;43.38;;
54271;SDS011;40184;53.362;5.216;2023-02-14T17:01:16;52.83;;;40.88;;
54271;SDS011;40184;53.362;5.216;2023-02-14T17:03:42;59.50;;;44.00;;